sensor_id;sensor_type;location;lat;lon;timestamp;temperature;humidity
11128;DHT22;5618;51.028;5.234;2022-09-29T00:00:32;9.80;99.90
11128;DHT22;5618;51.028;5.234;2022-09-29T00:02:58;9.50;99.90
11128;DHT22;5618;51.028;5.234;2022-09-29T00:05:23;9.50;99.90
11128;DHT22;5618;51.028;5.234;2022-09-29T00:07:49;9.60;99.90
11128;DHT22;5618;51.028;5.234;2022-09-29T00:10:14;9.60;99.90
11128;DHT22;5618;51.028;5.234;2022-09-29T00:12:40;9.60;99.90
11128;DHT22;5618;51.028;5.234;2022-09-29T00:15:06;9.50;99.90
11128;DHT22;5618;51.028;5.234;2022-09-29T00:17:32;9.50;99.90
11128;DHT22;5618;51.028;5.234;2022-09-29T00:19:58;9.60;99.90
11128;DHT22;5618;51.028;5.234;2022-09-29T00:22:24;9.60;99.90
11128;DHT22;5618;51.028;5.234;2022-09-29T00:24:49;9.80;99.90
11128;DHT22;5618;51.028;5.234;2022-09-29T00:27:16;9.50;99.90
11128;DHT22;5618;51.028;5.234;2022-09-29T00:29:42;9.40;99.90
11128;DHT22;5618;51.028;5.234;2022-09-29T00:32:08;9.30;99.90
11128;DHT22;5618;51.028;5.234;2022-09-29T00:34:34;9.20;99.90
11128;DHT22;5618;51.028;5.234;2022-09-29T00:37:00;9.20;99.90
11128;DHT22;5618;51.028;5.234;2022-09-29T00:39:25;9.10;99.90
11128;DHT22;5618;51.028;5.234;2022-09-29T00:41:51;9.30;99.90
11128;DHT22;5618;51.028;5.234;2022-09-29T00:47:06;9.00;99.90
11128;DHT22;5618;51.028;5.234;2022-09-29T00:49:38;9.10;99.90
11128;DHT22;5618;51.028;5.234;2022-09-29T00:54:59;9.20;99.90
11128;DHT22;5618;51.028;5.234;2022-09-29T00:57:33;9.20;99.90
11128;DHT22;5618;51.028;5.234;2022-09-29T01:00:09;9.00;99.90
11128;DHT22;5618;51.028;5.234;2022-09-29T01:02:58;9.10;99.90
11128;DHT22;5618;51.028;5.234;2022-09-29T01:05:29;9.00;99.90
11128;DHT22;5618;51.028;5.234;2022-09-29T01:07:59;9.20;99.90
11128;DHT22;5618;51.028;5.234;2022-09-29T01:10:27;9.20;99.90
11128;DHT22;5618;51.028;5.234;2022-09-29T01:12:53;9.30;99.90
11128;DHT22;5618;51.028;5.234;2022-09-29T01:15:20;9.20;99.90
11128;DHT22;5618;51.028;5.234;2022-09-29T01:17:47;9.10;99.90
11128;DHT22;5618;51.028;5.234;2022-09-29T01:20:19;9.20;99.90
11128;DHT22;5618;51.028;5.234;2022-09-29T01:31:16;9.20;99.90
11128;DHT22;5618;51.028;5.234;2022-09-29T01:36:38;9.00;99.90
11128;DHT22;5618;51.028;5.234;2022-09-29T01:39:37;8.80;99.90
11128;DHT22;5618;51.028;5.234;2022-09-29T01:42:16;8.80;99.90
11128;DHT22;5618;51.028;5.234;2022-09-29T01:44:44;8.90;99.90
11128;DHT22;5618;51.028;5.234;2022-09-29T01:47:23;8.90;99.90
11128;DHT22;5618;51.028;5.234;2022-09-29T01:50:09;8.80;99.90
11128;DHT22;5618;51.028;5.234;2022-09-29T01:52:41;8.50;99.90
11128;DHT22;5618;51.028;5.234;2022-09-29T01:55:16;8.40;99.90
11128;DHT22;5618;51.028;5.234;2022-09-29T02:00:16;8.80;99.90
11128;DHT22;5618;51.028;5.234;2022-09-29T02:05:26;8.90;99.90
11128;DHT22;5618;51.028;5.234;2022-09-29T02:07:57;8.80;99.90
11128;DHT22;5618;51.028;5.234;2022-09-29T02:10:31;8.80;99.90
11128;DHT22;5618;51.028;5.234;2022-09-29T02:12:58;8.70;99.90
11128;DHT22;5618;51.028;5.234;2022-09-29T02:15:29;8.60;99.90
11128;DHT22;5618;51.028;5.234;2022-09-29T02:18:07;8.60;99.90
11128;DHT22;5618;51.028;5.234;2022-09-29T02:20:34;8.60;99.90
11128;DHT22;5618;51.028;5.234;2022-09-29T02:23:00;8.60;99.90
11128;DHT22;5618;51.028;5.234;2022-09-29T02:25:26;8.40;99.90
11128;DHT22;5618;51.028;5.234;2022-09-29T02:27:51;8.50;99.90
11128;DHT22;5618;51.028;5.234;2022-09-29T02:30:18;8.40;99.90
11128;DHT22;5618;51.028;5.234;2022-09-29T02:32:46;8.30;99.90
11128;DHT22;5618;51.028;5.234;2022-09-29T02:35:13;8.10;99.90
11128;DHT22;5618;51.028;5.234;2022-09-29T02:40:28;8.20;99.90
11128;DHT22;5618;51.028;5.234;2022-09-29T02:51:40;8.00;99.90
11128;DHT22;5618;51.028;5.234;2022-09-29T02:56:57;8.10;99.90
11128;DHT22;5618;51.028;5.234;2022-09-29T02:59:32;8.10;99.90
11128;DHT22;5618;51.028;5.234;2022-09-29T03:02:00;8.10;99.90
11128;DHT22;5618;51.028;5.234;2022-09-29T03:04:27;8.30;99.90
11128;DHT22;5618;51.028;5.234;2022-09-29T03:06:53;8.30;99.90
11128;DHT22;5618;51.028;5.234;2022-09-29T03:09:18;8.20;99.90
11128;DHT22;5618;51.028;5.234;2022-09-29T03:11:44;8.20;99.90
11128;DHT22;5618;51.028;5.234;2022-09-29T03:14:10;8.10;99.90
11128;DHT22;5618;51.028;5.234;2022-09-29T03:16:37;8.20;99.90
11128;DHT22;5618;51.028;5.234;2022-09-29T03:19:03;8.20;99.90
11128;DHT22;5618;51.028;5.234;2022-09-29T03:21:32;8.00;99.90
11128;DHT22;5618;51.028;5.234;2022-09-29T03:23:58;8.10;99.90
11128;DHT22;5618;51.028;5.234;2022-09-29T03:26:24;8.10;99.90
11128;DHT22;5618;51.028;5.234;2022-09-29T03:28:50;8.00;99.90
11128;DHT22;5618;51.028;5.234;2022-09-29T03:31:16;7.90;99.90
11128;DHT22;5618;51.028;5.234;2022-09-29T03:33:42;7.70;99.90
11128;DHT22;5618;51.028;5.234;2022-09-29T03:36:08;7.80;99.90
11128;DHT22;5618;51.028;5.234;2022-09-29T03:38:36;7.70;99.90
11128;DHT22;5618;51.028;5.234;2022-09-29T03:41:03;7.80;99.90
11128;DHT22;5618;51.028;5.234;2022-09-29T03:43:29;7.50;99.90
11128;DHT22;5618;51.028;5.234;2022-09-29T03:45:55;7.60;99.90
11128;DHT22;5618;51.028;5.234;2022-09-29T03:48:22;7.60;99.90
11128;DHT22;5618;51.028;5.234;2022-09-29T03:50:49;7.60;99.90
11128;DHT22;5618;51.028;5.234;2022-09-29T03:53:15;7.50;99.90
11128;DHT22;5618;51.028;5.234;2022-09-29T03:55:48;7.60;99.90
11128;DHT22;5618;51.028;5.234;2022-09-29T03:58:15;7.70;99.90
11128;DHT22;5618;51.028;5.234;2022-09-29T04:00:42;7.70;99.90
11128;DHT22;5618;51.028;5.234;2022-09-29T04:03:07;7.60;99.90
11128;DHT22;5618;51.028;5.234;2022-09-29T04:05:33;7.60;99.90
11128;DHT22;5618;51.028;5.234;2022-09-29T04:08:03;7.50;99.90
11128;DHT22;5618;51.028;5.234;2022-09-29T04:10:29;7.50;99.90
11128;DHT22;5618;51.028;5.234;2022-09-29T04:12:55;7.60;99.90
11128;DHT22;5618;51.028;5.234;2022-09-29T04:15:20;7.70;99.90
11128;DHT22;5618;51.028;5.234;2022-09-29T04:17:46;7.60;99.90
11128;DHT22;5618;51.028;5.234;2022-09-29T04:20:12;7.60;99.90
11128;DHT22;5618;51.028;5.234;2022-09-29T04:22:37;7.50;99.90
11128;DHT22;5618;51.028;5.234;2022-09-29T04:25:03;7.60;99.90
11128;DHT22;5618;51.028;5.234;2022-09-29T04:27:29;7.60;99.90
11128;DHT22;5618;51.028;5.234;2022-09-29T04:29:54;7.50;99.90
11128;DHT22;5618;51.028;5.234;2022-09-29T04:32:20;7.30;99.90
11128;DHT22;5618;51.028;5.234;2022-09-29T04:34:47;7.20;99.90
11128;DHT22;5618;51.028;5.234;2022-09-29T04:37:12;7.30;99.90
11128;DHT22;5618;51.028;5.234;2022-09-29T04:39:39;7.50;99.90
11128;DHT22;5618;51.028;5.234;2022-09-29T04:42:04;7.20;99.90
11128;DHT22;5618;51.028;5.234;2022-09-29T04:44:30;7.20;99.90
11128;DHT22;5618;51.028;5.234;2022-09-29T04:46:57;7.50;99.90
11128;DHT22;5618;51.028;5.234;2022-09-29T04:49:22;7.50;99.90
11128;DHT22;5618;51.028;5.234;2022-09-29T04:51:49;7.50;99.90
11128;DHT22;5618;51.028;5.234;2022-09-29T04:54:14;7.50;99.90
11128;DHT22;5618;51.028;5.234;2022-09-29T04:56:41;7.50;99.90
11128;DHT22;5618;51.028;5.234;2022-09-29T04:59:08;7.60;99.90
11128;DHT22;5618;51.028;5.234;2022-09-29T05:01:34;7.50;99.90
11128;DHT22;5618;51.028;5.234;2022-09-29T05:04:00;7.50;99.90
11128;DHT22;5618;51.028;5.234;2022-09-29T05:06:26;7.40;99.90
11128;DHT22;5618;51.028;5.234;2022-09-29T05:08:51;7.50;99.90
11128;DHT22;5618;51.028;5.234;2022-09-29T05:11:17;7.50;99.90
11128;DHT22;5618;51.028;5.234;2022-09-29T05:13:43;7.40;99.90
11128;DHT22;5618;51.028;5.234;2022-09-29T05:16:08;7.50;99.90
11128;DHT22;5618;51.028;5.234;2022-09-29T05:18:34;7.30;99.90
11128;DHT22;5618;51.028;5.234;2022-09-29T05:21:04;7.30;99.90
11128;DHT22;5618;51.028;5.234;2022-09-29T05:23:31;7.30;99.90
11128;DHT22;5618;51.028;5.234;2022-09-29T05:26:01;7.40;99.90
11128;DHT22;5618;51.028;5.234;2022-09-29T05:28:27;7.40;99.90
11128;DHT22;5618;51.028;5.234;2022-09-29T05:30:53;7.40;99.90
11128;DHT22;5618;51.028;5.234;2022-09-29T05:33:18;7.40;99.90
11128;DHT22;5618;51.028;5.234;2022-09-29T05:35:44;7.30;99.90
11128;DHT22;5618;51.028;5.234;2022-09-29T05:38:10;7.40;99.90
11128;DHT22;5618;51.028;5.234;2022-09-29T05:40:35;7.20;99.90
11128;DHT22;5618;51.028;5.234;2022-09-29T05:43:02;6.90;99.90
11128;DHT22;5618;51.028;5.234;2022-09-29T05:45:28;6.80;99.90
11128;DHT22;5618;51.028;5.234;2022-09-29T05:47:53;6.80;99.90
11128;DHT22;5618;51.028;5.234;2022-09-29T05:50:19;6.90;99.90
11128;DHT22;5618;51.028;5.234;2022-09-29T05:52:45;6.80;99.90
11128;DHT22;5618;51.028;5.234;2022-09-29T05:55:14;6.90;99.90
11128;DHT22;5618;51.028;5.234;2022-09-29T05:57:40;6.90;99.90
11128;DHT22;5618;51.028;5.234;2022-09-29T06:00:06;6.90;99.90
11128;DHT22;5618;51.028;5.234;2022-09-29T06:02:32;6.80;99.90
11128;DHT22;5618;51.028;5.234;2022-09-29T06:04:59;6.70;99.90
11128;DHT22;5618;51.028;5.234;2022-09-29T06:07:25;6.70;99.90
11128;DHT22;5618;51.028;5.234;2022-09-29T06:09:50;6.70;99.90
11128;DHT22;5618;51.028;5.234;2022-09-29T06:12:16;6.70;99.90
11128;DHT22;5618;51.028;5.234;2022-09-29T06:14:41;6.90;99.90
11128;DHT22;5618;51.028;5.234;2022-09-29T06:17:07;7.20;99.90
11128;DHT22;5618;51.028;5.234;2022-09-29T06:19:33;7.50;99.90
11128;DHT22;5618;51.028;5.234;2022-09-29T06:21:58;7.90;99.90
11128;DHT22;5618;51.028;5.234;2022-09-29T06:24:24;8.10;99.90
11128;DHT22;5618;51.028;5.234;2022-09-29T06:26:50;8.50;99.90
11128;DHT22;5618;51.028;5.234;2022-09-29T06:29:16;8.80;99.90
11128;DHT22;5618;51.028;5.234;2022-09-29T06:31:41;8.90;99.90
11128;DHT22;5618;51.028;5.234;2022-09-29T06:34:08;9.30;99.90
11128;DHT22;5618;51.028;5.234;2022-09-29T06:36:38;9.70;99.90
11128;DHT22;5618;51.028;5.234;2022-09-29T06:39:23;10.20;99.90
11128;DHT22;5618;51.028;5.234;2022-09-29T06:41:48;10.60;99.90
11128;DHT22;5618;51.028;5.234;2022-09-29T06:44:22;10.80;99.90
11128;DHT22;5618;51.028;5.234;2022-09-29T06:46:51;11.10;99.90
11128;DHT22;5618;51.028;5.234;2022-09-29T06:49:18;11.50;99.90
11128;DHT22;5618;51.028;5.234;2022-09-29T06:51:44;11.80;99.90
11128;DHT22;5618;51.028;5.234;2022-09-29T06:54:14;12.20;99.90
11128;DHT22;5618;51.028;5.234;2022-09-29T06:56:40;12.50;99.90
11128;DHT22;5618;51.028;5.234;2022-09-29T06:59:07;12.80;99.90
11128;DHT22;5618;51.028;5.234;2022-09-29T07:01:33;13.00;99.90
11128;DHT22;5618;51.028;5.234;2022-09-29T07:03:59;13.30;99.90
11128;DHT22;5618;51.028;5.234;2022-09-29T07:06:26;13.60;99.90
11128;DHT22;5618;51.028;5.234;2022-09-29T07:08:54;13.80;99.90
11128;DHT22;5618;51.028;5.234;2022-09-29T07:11:21;14.10;99.90
11128;DHT22;5618;51.028;5.234;2022-09-29T07:13:46;14.00;99.90
11128;DHT22;5618;51.028;5.234;2022-09-29T07:16:12;13.70;99.90
11128;DHT22;5618;51.028;5.234;2022-09-29T07:18:40;13.70;99.90
11128;DHT22;5618;51.028;5.234;2022-09-29T07:21:08;13.80;99.90
11128;DHT22;5618;51.028;5.234;2022-09-29T07:23:35;13.90;99.90
11128;DHT22;5618;51.028;5.234;2022-09-29T07:26:01;13.50;99.90
11128;DHT22;5618;51.028;5.234;2022-09-29T07:28:27;13.70;99.90
11128;DHT22;5618;51.028;5.234;2022-09-29T07:31:06;14.10;99.90
11128;DHT22;5618;51.028;5.234;2022-09-29T07:33:32;14.30;99.90
11128;DHT22;5618;51.028;5.234;2022-09-29T07:35:58;14.30;99.90
11128;DHT22;5618;51.028;5.234;2022-09-29T07:38:26;14.40;99.90
11128;DHT22;5618;51.028;5.234;2022-09-29T07:40:52;14.40;99.90
11128;DHT22;5618;51.028;5.234;2022-09-29T07:43:17;14.60;99.90
11128;DHT22;5618;51.028;5.234;2022-09-29T07:45:50;14.80;99.90
11128;DHT22;5618;51.028;5.234;2022-09-29T07:48:17;14.80;99.90
11128;DHT22;5618;51.028;5.234;2022-09-29T07:50:44;14.80;99.90
11128;DHT22;5618;51.028;5.234;2022-09-29T07:53:10;14.90;99.90
11128;DHT22;5618;51.028;5.234;2022-09-29T07:55:37;15.40;99.90
11128;DHT22;5618;51.028;5.234;2022-09-29T07:58:03;15.30;99.90
11128;DHT22;5618;51.028;5.234;2022-09-29T08:00:29;15.40;99.90
11128;DHT22;5618;51.028;5.234;2022-09-29T08:03:01;15.30;99.90
11128;DHT22;5618;51.028;5.234;2022-09-29T08:05:29;14.90;99.90
11128;DHT22;5618;51.028;5.234;2022-09-29T08:08:01;14.80;99.90
11128;DHT22;5618;51.028;5.234;2022-09-29T08:10:28;14.80;99.90
11128;DHT22;5618;51.028;5.234;2022-09-29T08:12:55;14.50;99.90
11128;DHT22;5618;51.028;5.234;2022-09-29T08:15:22;14.40;99.90
11128;DHT22;5618;51.028;5.234;2022-09-29T08:17:48;14.20;99.90
11128;DHT22;5618;51.028;5.234;2022-09-29T08:20:16;14.30;99.90
11128;DHT22;5618;51.028;5.234;2022-09-29T08:22:41;14.40;99.90
11128;DHT22;5618;51.028;5.234;2022-09-29T08:25:07;14.20;99.90
11128;DHT22;5618;51.028;5.234;2022-09-29T08:27:33;14.30;99.90
11128;DHT22;5618;51.028;5.234;2022-09-29T08:29:58;15.10;99.90
11128;DHT22;5618;51.028;5.234;2022-09-29T08:32:24;15.20;99.90
11128;DHT22;5618;51.028;5.234;2022-09-29T08:34:50;15.70;99.90
11128;DHT22;5618;51.028;5.234;2022-09-29T08:37:16;16.40;99.90
11128;DHT22;5618;51.028;5.234;2022-09-29T08:39:42;16.60;99.90
11128;DHT22;5618;51.028;5.234;2022-09-29T08:42:22;16.60;99.90
11128;DHT22;5618;51.028;5.234;2022-09-29T08:44:56;17.00;99.90
11128;DHT22;5618;51.028;5.234;2022-09-29T08:47:29;17.60;99.90
11128;DHT22;5618;51.028;5.234;2022-09-29T08:50:00;17.50;99.90
11128;DHT22;5618;51.028;5.234;2022-09-29T08:52:37;18.00;99.90
11128;DHT22;5618;51.028;5.234;2022-09-29T08:57:42;18.50;99.90
11128;DHT22;5618;51.028;5.234;2022-09-29T09:00:13;18.80;99.90
11128;DHT22;5618;51.028;5.234;2022-09-29T09:13:58;19.40;99.90
11128;DHT22;5618;51.028;5.234;2022-09-29T09:16:57;19.40;99.90
11128;DHT22;5618;51.028;5.234;2022-09-29T09:20:03;19.70;99.90
11128;DHT22;5618;51.028;5.234;2022-09-29T09:22:56;19.70;99.90
11128;DHT22;5618;51.028;5.234;2022-09-29T09:25:33;19.60;99.90
11128;DHT22;5618;51.028;5.234;2022-09-29T09:28:13;19.90;99.90
11128;DHT22;5618;51.028;5.234;2022-09-29T09:30:48;20.10;99.90
11128;DHT22;5618;51.028;5.234;2022-09-29T09:33:22;20.10;99.90
11128;DHT22;5618;51.028;5.234;2022-09-29T09:35:56;20.40;99.90
11128;DHT22;5618;51.028;5.234;2022-09-29T09:38:27;20.30;99.90
11128;DHT22;5618;51.028;5.234;2022-09-29T09:40:59;20.50;99.90
11128;DHT22;5618;51.028;5.234;2022-09-29T09:43:55;20.80;99.90
11128;DHT22;5618;51.028;5.234;2022-09-29T09:46:36;21.00;99.90
11128;DHT22;5618;51.028;5.234;2022-09-29T09:49:16;19.90;99.90
11128;DHT22;5618;51.028;5.234;2022-09-29T09:52:01;20.20;99.90
11128;DHT22;5618;51.028;5.234;2022-09-29T09:54:44;20.10;99.90
11128;DHT22;5618;51.028;5.234;2022-09-29T10:00:20;19.90;99.90
11128;DHT22;5618;51.028;5.234;2022-09-29T10:02:49;20.40;99.90
11128;DHT22;5618;51.028;5.234;2022-09-29T10:05:20;20.90;99.90
11128;DHT22;5618;51.028;5.234;2022-09-29T10:07:49;21.40;99.90
11128;DHT22;5618;51.028;5.234;2022-09-29T10:10:23;21.30;99.90
11128;DHT22;5618;51.028;5.234;2022-09-29T10:13:00;21.00;99.90
11128;DHT22;5618;51.028;5.234;2022-09-29T10:15:35;21.00;99.90
11128;DHT22;5618;51.028;5.234;2022-09-29T10:20:51;21.10;99.90
11128;DHT22;5618;51.028;5.234;2022-09-29T10:28:54;21.60;99.90
11128;DHT22;5618;51.028;5.234;2022-09-29T10:31:33;21.90;99.90
11128;DHT22;5618;51.028;5.234;2022-09-29T10:34:01;22.00;99.90
11128;DHT22;5618;51.028;5.234;2022-09-29T10:36:50;21.60;99.90
11128;DHT22;5618;51.028;5.234;2022-09-29T10:39:40;21.20;99.90
11128;DHT22;5618;51.028;5.234;2022-09-29T10:42:31;20.70;99.90
11128;DHT22;5618;51.028;5.234;2022-09-29T10:47:27;20.60;99.90
11128;DHT22;5618;51.028;5.234;2022-09-29T10:50:13;20.40;99.90
11128;DHT22;5618;51.028;5.234;2022-09-29T10:52:48;21.10;99.90
11128;DHT22;5618;51.028;5.234;2022-09-29T10:55:18;20.80;99.90
11128;DHT22;5618;51.028;5.234;2022-09-29T10:57:45;20.20;99.90
11128;DHT22;5618;51.028;5.234;2022-09-29T11:00:36;20.40;99.90
11128;DHT22;5618;51.028;5.234;2022-09-29T11:03:26;20.60;99.90
11128;DHT22;5618;51.028;5.234;2022-09-29T11:06:02;21.10;98.70
11128;DHT22;5618;51.028;5.234;2022-09-29T11:08:29;21.20;97.60
11128;DHT22;5618;51.028;5.234;2022-09-29T11:11:08;21.50;98.80
11128;DHT22;5618;51.028;5.234;2022-09-29T11:13:44;21.70;98.50
11128;DHT22;5618;51.028;5.234;2022-09-29T11:16:16;21.10;98.40
11128;DHT22;5618;51.028;5.234;2022-09-29T11:18:43;20.70;99.90
11128;DHT22;5618;51.028;5.234;2022-09-29T11:27:05;20.30;99.90
11128;DHT22;5618;51.028;5.234;2022-09-29T11:30:04;19.70;99.90
11128;DHT22;5618;51.028;5.234;2022-09-29T11:43:32;19.00;99.90
11128;DHT22;5618;51.028;5.234;2022-09-29T11:46:41;19.10;99.90
11128;DHT22;5618;51.028;5.234;2022-09-29T11:52:03;18.10;99.90
11128;DHT22;5618;51.028;5.234;2022-09-29T12:00:11;17.80;99.90
11128;DHT22;5618;51.028;5.234;2022-09-29T12:11:36;18.00;99.90
11128;DHT22;5618;51.028;5.234;2022-09-29T12:14:19;17.70;99.90
11128;DHT22;5618;51.028;5.234;2022-09-29T12:17:01;18.00;99.90
11128;DHT22;5618;51.028;5.234;2022-09-29T12:19:30;18.10;99.90
11128;DHT22;5618;51.028;5.234;2022-09-29T12:22:00;17.90;99.90
11128;DHT22;5618;51.028;5.234;2022-09-29T12:24:43;17.70;99.90
11128;DHT22;5618;51.028;5.234;2022-09-29T12:27:24;17.80;99.90
11128;DHT22;5618;51.028;5.234;2022-09-29T12:30:19;18.20;99.90
11128;DHT22;5618;51.028;5.234;2022-09-29T12:32:53;18.00;99.90
11128;DHT22;5618;51.028;5.234;2022-09-29T12:36:15;18.00;99.90
11128;DHT22;5618;51.028;5.234;2022-09-29T12:38:58;18.20;99.90
11128;DHT22;5618;51.028;5.234;2022-09-29T12:41:28;18.20;99.90
11128;DHT22;5618;51.028;5.234;2022-09-29T12:46:37;18.00;99.90
11128;DHT22;5618;51.028;5.234;2022-09-29T12:51:52;17.80;99.90
11128;DHT22;5618;51.028;5.234;2022-09-29T12:54:24;17.60;99.90
11128;DHT22;5618;51.028;5.234;2022-09-29T12:57:11;17.70;99.90
11128;DHT22;5618;51.028;5.234;2022-09-29T13:08:19;17.10;99.90
11128;DHT22;5618;51.028;5.234;2022-09-29T13:16:41;17.90;99.90
11128;DHT22;5618;51.028;5.234;2022-09-29T13:24:48;17.60;99.90
11128;DHT22;5618;51.028;5.234;2022-09-29T13:27:24;17.50;99.90
11128;DHT22;5618;51.028;5.234;2022-09-29T13:30:17;17.40;99.90
11128;DHT22;5618;51.028;5.234;2022-09-29T13:32:45;17.20;99.90
11128;DHT22;5618;51.028;5.234;2022-09-29T13:35:20;17.50;99.90
11128;DHT22;5618;51.028;5.234;2022-09-29T13:37:56;17.60;99.90
11128;DHT22;5618;51.028;5.234;2022-09-29T13:40:28;17.80;99.90
11128;DHT22;5618;51.028;5.234;2022-09-29T13:43:02;17.90;99.90
11128;DHT22;5618;51.028;5.234;2022-09-29T13:50:56;18.00;99.90
11128;DHT22;5618;51.028;5.234;2022-09-29T13:58:26;17.90;99.90
11128;DHT22;5618;51.028;5.234;2022-09-29T14:00:54;18.00;99.90
11128;DHT22;5618;51.028;5.234;2022-09-29T14:03:44;18.00;99.90
11128;DHT22;5618;51.028;5.234;2022-09-29T14:06:13;18.10;99.90
11128;DHT22;5618;51.028;5.234;2022-09-29T14:09:02;18.10;99.90
11128;DHT22;5618;51.028;5.234;2022-09-29T14:11:30;18.30;99.90
11128;DHT22;5618;51.028;5.234;2022-09-29T14:14:07;18.30;99.90
11128;DHT22;5618;51.028;5.234;2022-09-29T14:21:56;18.20;99.90
11128;DHT22;5618;51.028;5.234;2022-09-29T14:27:28;17.80;99.90
11128;DHT22;5618;51.028;5.234;2022-09-29T14:30:12;17.80;99.90
11128;DHT22;5618;51.028;5.234;2022-09-29T14:32:56;17.80;99.90
11128;DHT22;5618;51.028;5.234;2022-09-29T14:35:47;17.80;99.90
11128;DHT22;5618;51.028;5.234;2022-09-29T14:38:24;17.80;99.90
11128;DHT22;5618;51.028;5.234;2022-09-29T14:43:47;17.70;99.90
11128;DHT22;5618;51.028;5.234;2022-09-29T14:46:23;17.80;99.90
11128;DHT22;5618;51.028;5.234;2022-09-29T15:00:21;18.10;99.90
11128;DHT22;5618;51.028;5.234;2022-09-29T15:02:51;18.00;99.90
11128;DHT22;5618;51.028;5.234;2022-09-29T15:05:27;18.10;99.90
11128;DHT22;5618;51.028;5.234;2022-09-29T15:07:54;18.10;99.90
11128;DHT22;5618;51.028;5.234;2022-09-29T15:10:32;17.90;99.90
11128;DHT22;5618;51.028;5.234;2022-09-29T15:13:37;17.90;99.90
11128;DHT22;5618;51.028;5.234;2022-09-29T15:16:10;17.80;99.90
11128;DHT22;5618;51.028;5.234;2022-09-29T15:27:12;18.00;99.90
11128;DHT22;5618;51.028;5.234;2022-09-29T15:29:39;18.20;99.90
11128;DHT22;5618;51.028;5.234;2022-09-29T15:32:26;18.20;99.90
11128;DHT22;5618;51.028;5.234;2022-09-29T15:34:58;18.20;99.90
11128;DHT22;5618;51.028;5.234;2022-09-29T15:37:25;18.00;99.90
11128;DHT22;5618;51.028;5.234;2022-09-29T15:39:51;17.90;99.90
11128;DHT22;5618;51.028;5.234;2022-09-29T15:42:20;17.80;99.90
11128;DHT22;5618;51.028;5.234;2022-09-29T15:44:59;17.80;99.90
11128;DHT22;5618;51.028;5.234;2022-09-29T15:47:33;17.80;99.90
11128;DHT22;5618;51.028;5.234;2022-09-29T15:50:21;17.70;99.90
11128;DHT22;5618;51.028;5.234;2022-09-29T15:52:48;17.80;99.90
11128;DHT22;5618;51.028;5.234;2022-09-29T15:55:22;17.90;99.90
11128;DHT22;5618;51.028;5.234;2022-09-29T15:57:49;17.90;99.90
11128;DHT22;5618;51.028;5.234;2022-09-29T16:05:26;17.80;99.90
11128;DHT22;5618;51.028;5.234;2022-09-29T16:08:04;17.60;99.90
11128;DHT22;5618;51.028;5.234;2022-09-29T16:10:33;17.50;99.90
11128;DHT22;5618;51.028;5.234;2022-09-29T16:13:04;17.50;99.90
11128;DHT22;5618;51.028;5.234;2022-09-29T16:15:41;17.50;99.90
11128;DHT22;5618;51.028;5.234;2022-09-29T16:18:09;17.20;99.90
11128;DHT22;5618;51.028;5.234;2022-09-29T16:20:41;17.20;99.90
11128;DHT22;5618;51.028;5.234;2022-09-29T16:23:16;17.30;99.90
11128;DHT22;5618;51.028;5.234;2022-09-29T16:25:43;17.20;99.90
11128;DHT22;5618;51.028;5.234;2022-09-29T16:28:26;17.20;99.90
11128;DHT22;5618;51.028;5.234;2022-09-29T16:31:02;17.20;99.90
11128;DHT22;5618;51.028;5.234;2022-09-29T16:33:28;17.30;99.90
11128;DHT22;5618;51.028;5.234;2022-09-29T16:36:10;17.30;99.90
11128;DHT22;5618;51.028;5.234;2022-09-29T16:38:39;17.40;99.90
11128;DHT22;5618;51.028;5.234;2022-09-29T16:43:34;17.40;99.90
11128;DHT22;5618;51.028;5.234;2022-09-29T16:46:01;17.40;99.90
11128;DHT22;5618;51.028;5.234;2022-09-29T16:48:29;17.40;99.90
11128;DHT22;5618;51.028;5.234;2022-09-29T16:51:00;17.30;99.90
11128;DHT22;5618;51.028;5.234;2022-09-29T16:53:32;17.30;99.90
11128;DHT22;5618;51.028;5.234;2022-09-29T16:56:04;17.20;99.90
11128;DHT22;5618;51.028;5.234;2022-09-29T16:58:30;17.10;99.90
11128;DHT22;5618;51.028;5.234;2022-09-29T17:00:56;17.10;99.90
11128;DHT22;5618;51.028;5.234;2022-09-29T17:03:22;17.00;99.90
11128;DHT22;5618;51.028;5.234;2022-09-29T17:05:48;17.10;99.90
11128;DHT22;5618;51.028;5.234;2022-09-29T17:10:47;17.00;99.90
11128;DHT22;5618;51.028;5.234;2022-09-29T17:13:13;17.00;99.90
11128;DHT22;5618;51.028;5.234;2022-09-29T17:15:40;16.90;99.90
11128;DHT22;5618;51.028;5.234;2022-09-29T17:18:11;16.90;99.90
11128;DHT22;5618;51.028;5.234;2022-09-29T17:20:37;16.90;99.90
11128;DHT22;5618;51.028;5.234;2022-09-29T17:23:03;16.70;99.90
11128;DHT22;5618;51.028;5.234;2022-09-29T17:25:30;16.70;99.90
11128;DHT22;5618;51.028;5.234;2022-09-29T17:27:56;16.70;99.90
11128;DHT22;5618;51.028;5.234;2022-09-29T17:30:38;16.60;99.90
11128;DHT22;5618;51.028;5.234;2022-09-29T17:33:04;16.70;99.90
11128;DHT22;5618;51.028;5.234;2022-09-29T17:35:52;16.70;99.90
11128;DHT22;5618;51.028;5.234;2022-09-29T17:38:18;16.60;99.90
11128;DHT22;5618;51.028;5.234;2022-09-29T17:41:05;16.60;99.90
11128;DHT22;5618;51.028;5.234;2022-09-29T17:43:31;16.50;99.90
11128;DHT22;5618;51.028;5.234;2022-09-29T17:45:58;16.40;99.90
11128;DHT22;5618;51.028;5.234;2022-09-29T17:48:25;16.10;99.90
11128;DHT22;5618;51.028;5.234;2022-09-29T17:50:52;16.10;99.90
11128;DHT22;5618;51.028;5.234;2022-09-29T17:53:21;16.00;99.90
11128;DHT22;5618;51.028;5.234;2022-09-29T17:55:48;15.80;99.90
11128;DHT22;5618;51.028;5.234;2022-09-29T17:58:16;16.00;99.90
11128;DHT22;5618;51.028;5.234;2022-09-29T18:00:44;15.90;99.90
11128;DHT22;5618;51.028;5.234;2022-09-29T18:03:13;15.90;99.90
11128;DHT22;5618;51.028;5.234;2022-09-29T18:05:43;15.70;99.90
11128;DHT22;5618;51.028;5.234;2022-09-29T18:08:13;15.60;99.90
11128;DHT22;5618;51.028;5.234;2022-09-29T18:10:49;15.60;99.90
11128;DHT22;5618;51.028;5.234;2022-09-29T18:13:15;15.50;99.90
11128;DHT22;5618;51.028;5.234;2022-09-29T18:15:41;15.20;99.90
11128;DHT22;5618;51.028;5.234;2022-09-29T18:18:10;15.20;99.90
11128;DHT22;5618;51.028;5.234;2022-09-29T18:20:37;15.20;99.90
11128;DHT22;5618;51.028;5.234;2022-09-29T18:23:04;15.20;99.90
11128;DHT22;5618;51.028;5.234;2022-09-29T18:25:31;15.20;99.90
11128;DHT22;5618;51.028;5.234;2022-09-29T18:27:57;15.10;99.90
11128;DHT22;5618;51.028;5.234;2022-09-29T18:30:30;15.10;99.90
11128;DHT22;5618;51.028;5.234;2022-09-29T18:32:57;15.20;99.90
11128;DHT22;5618;51.028;5.234;2022-09-29T18:35:29;15.20;99.90
11128;DHT22;5618;51.028;5.234;2022-09-29T18:37:56;15.10;99.90
11128;DHT22;5618;51.028;5.234;2022-09-29T18:40:23;14.90;99.90
11128;DHT22;5618;51.028;5.234;2022-09-29T18:42:50;14.80;99.90
11128;DHT22;5618;51.028;5.234;2022-09-29T18:45:24;14.80;99.90
11128;DHT22;5618;51.028;5.234;2022-09-29T18:47:55;14.80;99.90
11128;DHT22;5618;51.028;5.234;2022-09-29T18:50:34;14.90;99.90
11128;DHT22;5618;51.028;5.234;2022-09-29T18:53:02;14.70;99.90
11128;DHT22;5618;51.028;5.234;2022-09-29T18:55:28;14.70;99.90
11128;DHT22;5618;51.028;5.234;2022-09-29T18:57:56;14.40;99.90
11128;DHT22;5618;51.028;5.234;2022-09-29T19:00:28;14.30;99.90
11128;DHT22;5618;51.028;5.234;2022-09-29T19:02:55;14.30;99.90
11128;DHT22;5618;51.028;5.234;2022-09-29T19:05:22;14.30;99.90
11128;DHT22;5618;51.028;5.234;2022-09-29T19:07:52;14.20;99.90
11128;DHT22;5618;51.028;5.234;2022-09-29T19:10:18;14.20;99.90